»·PEaware :: FFT250 KEGE-KSUN

FFT250 :: KEGE-KSUN

FLIGHT INFORMATION

Flight Status: Arrived
Operator:
Frontier Airlines
More flights by this operator :: More flights under this callsign
Pilot: Andrew J. (13363)
Aircraft: AIRBUS A320
(A320)
More flights by this aircraft type
Origin: KEGE Eagle Co Regl
United States
Destination: KSUN Friedman Meml
United States
More flights between these airports :: More routes between these airports
Route: + / EKR100025 PIH MENIN
File this flight plan on PilotEdge
Remarks:
Altitude:
(Current/Filed)
38,000ft
Speed:
(Current/Filed)
460kts
Departed: 11-Nov-17 09:52 PM
Arrived: 11-Nov-17 11:04 PM
Distance/Time
Traveled:
404nm/1:12
Distance/Time
To Go:
Arrived

Flight Plot

Page will automatically refresh every two minutes.

Flight plan parsing failed; only flown route is shown


Map Options




Map Legend


Flown Route
Filed Route
Departure Airport
Arrival Airport
Navaid (VOR, NDB)
Fix

Horizontal Profiles

Position Reports

Time Latitude Longitude Heading Altitude Ground
Speed
11-Nov-17 21:28 39.640625 -106.914114 171 6555ft 0kts
11-Nov-17 21:29 39.640625 -106.914114 171 6555ft 0kts
11-Nov-17 21:30 39.640625 -106.914114 171 6555ft 0kts
11-Nov-17 21:31 39.640625 -106.914114 171 6555ft 0kts
11-Nov-17 21:32 39.640625 -106.914114 171 6555ft 0kts
11-Nov-17 21:33 39.640625 -106.914114 171 6555ft 0kts
11-Nov-17 21:34 39.640625 -106.914114 171 6555ft 0kts
11-Nov-17 21:35 39.640625 -106.914114 171 6555ft 0kts
11-Nov-17 21:36 39.640625 -106.914114 171 6555ft 0kts
11-Nov-17 21:37 39.640625 -106.914114 171 6555ft 0kts
11-Nov-17 21:38 39.640625 -106.914114 171 6555ft 0kts
11-Nov-17 21:39 39.640625 -106.914114 171 6555ft 0kts
11-Nov-17 21:40 39.640625 -106.914114 171 6555ft 0kts
11-Nov-17 21:41 39.640625 -106.914114 171 6555ft 0kts
11-Nov-17 21:42 39.640625 -106.914114 171 6555ft 0kts
11-Nov-17 21:43 39.641002 -106.914272 140 6555ft 2kts
11-Nov-17 21:44 39.641209 -106.914895 83 6555ft 0kts
11-Nov-17 21:45 39.641200 -106.914971 82 6555ft 0kts
11-Nov-17 21:46 39.641200 -106.914971 82 6555ft 0kts
11-Nov-17 21:47 39.641200 -106.914971 82 6555ft 0kts
11-Nov-17 21:48 39.641200 -106.914970 82 6555ft 0kts
11-Nov-17 21:49 39.641200 -106.914970 82 6555ft 0kts
11-Nov-17 21:50 39.641206 -106.914912 82 6555ft 0kts
11-Nov-17 21:51 39.641373 -106.914255 34 6555ft 3kts
11-Nov-17 21:52 39.641999 -106.913702 80 6555ft 2kts
11-Nov-17 21:53 39.642066 -106.913072 81 6555ft 1kts
11-Nov-17 21:54 39.642563 -106.908422 82 6555ft 15kts
11-Nov-17 21:55 39.643199 -106.902631 83 6555ft 18kts
11-Nov-17 21:56 39.644281 -106.902869 253 6555ft 8kts
11-Nov-17 21:57 39.640811 -106.934949 258 6913ft 172kts
11-Nov-17 21:58 39.611782 -106.983367 225 9231ft 183kts
11-Nov-17 21:59 39.635357 -107.028256 345 10876ft 233kts
11-Nov-17 22:00 39.705072 -107.062214 336 12511ft 307kts
11-Nov-17 22:01 39.788919 -107.115442 332 14219ft 356kts
11-Nov-17 22:02 39.843312 -107.221958 292 16582ft 370kts
11-Nov-17 22:03 39.883961 -107.348559 292 18202ft 398kts
11-Nov-17 22:04 39.938660 -107.478146 309 19328ft 424kts
11-Nov-17 22:05 40.013500 -107.598910 315 21133ft 423kts
11-Nov-17 22:06 40.078738 -107.705501 312 23358ft 403kts
11-Nov-17 22:07 40.140936 -107.807381 306 24746ft 400kts
11-Nov-17 22:08 40.210877 -107.922330 304 25526ft 413kts
11-Nov-17 22:09 40.282006 -108.039723 304 26499ft 417kts
11-Nov-17 22:10 40.353325 -108.157869 304 27735ft 413kts
11-Nov-17 22:11 40.423570 -108.274685 303 28961ft 409kts
11-Nov-17 22:12 40.493284 -108.391047 303 30114ft 406kts
11-Nov-17 22:13 40.562573 -108.507122 303 31327ft 401kts
11-Nov-17 22:14 40.630534 -108.621401 302 32458ft 397kts
11-Nov-17 22:15 40.695162 -108.730666 301 33444ft 392kts
11-Nov-17 22:16 40.761412 -108.842937 301 34320ft 389kts
11-Nov-17 22:17 40.827143 -108.954684 301 35126ft 387kts
11-Nov-17 22:18 40.892366 -109.065955 301 35867ft 384kts
11-Nov-17 22:19 40.957223 -109.177006 301 36498ft 383kts
11-Nov-17 22:20 41.021459 -109.287385 300 37027ft 382kts
11-Nov-17 22:21 41.086026 -109.398729 300 37504ft 382kts
11-Nov-17 22:22 41.143738 -109.498597 301 37656ft 387kts
11-Nov-17 22:23 41.208852 -109.611670 301 38066ft 386kts
11-Nov-17 22:24 41.238315 -109.662989 300 38208ft 386kts
11-Nov-17 22:25 41.292044 -109.756984 300 38359ft 384kts
11-Nov-17 22:26 41.356080 -109.869184 300 38392ft 383kts
11-Nov-17 22:27 41.419695 -109.980990 300 38388ft 384kts
11-Nov-17 22:28 41.483684 -110.093863 300 38405ft 384kts
11-Nov-17 22:29 41.547413 -110.206702 300 38403ft 383kts
11-Nov-17 22:30 41.609967 -110.317866 300 38384ft 382kts
11-Nov-17 22:31 41.673857 -110.431823 300 38384ft 383kts
11-Nov-17 22:32 41.737382 -110.545554 300 38387ft 383kts
11-Nov-17 22:33 41.796375 -110.651554 299 38392ft 383kts
11-Nov-17 22:34 41.858399 -110.763670 299 38397ft 383kts
11-Nov-17 22:35 41.911178 -110.859215 299 38389ft 383kts
11-Nov-17 22:36 41.974094 -110.973462 299 38390ft 384kts
11-Nov-17 22:37 42.047434 -111.107176 299 38373ft 384kts
11-Nov-17 22:38 42.104041 -111.210790 299 38375ft 384kts
11-Nov-17 22:39 42.161692 -111.316675 299 38377ft 384kts
11-Nov-17 22:40 42.214022 -111.413117 299 38376ft 385kts
11-Nov-17 22:41 42.276720 -111.529070 299 38375ft 385kts
11-Nov-17 22:42 42.339612 -111.645835 299 38374ft 385kts
11-Nov-17 22:43 42.399299 -111.757337 298 38377ft 384kts
11-Nov-17 22:44 42.461783 -111.874281 298 38375ft 384kts
11-Nov-17 22:45 42.524195 -111.991499 299 38373ft 384kts
11-Nov-17 22:46 42.586134 -112.108278 298 38330ft 385kts
11-Nov-17 22:47 42.648346 -112.226020 298 37909ft 384kts
11-Nov-17 22:48 42.710459 -112.344065 299 36753ft 387kts
11-Nov-17 22:49 42.772993 -112.463367 299 35747ft 389kts
11-Nov-17 22:50 42.835126 -112.582381 299 33557ft 388kts
11-Nov-17 22:51 42.881618 -112.705339 281 30965ft 384kts
11-Nov-17 22:52 42.911231 -112.847360 282 28248ft 401kts
11-Nov-17 22:53 42.941920 -112.994983 283 24948ft 414kts
11-Nov-17 22:54 42.971410 -113.137902 282 22505ft 409kts
11-Nov-17 22:55 43.000623 -113.280565 282 20092ft 397kts
11-Nov-17 22:56 43.029173 -113.420899 282 17700ft 384kts
11-Nov-17 22:57 43.057130 -113.559228 282 15241ft 372kts
11-Nov-17 22:58 43.082078 -113.683581 282 13829ft 368kts
11-Nov-17 22:59 43.105889 -113.803020 282 13140ft 365kts
11-Nov-17 23:00 43.133598 -113.933120 295 12334ft 372kts
11-Nov-17 23:01 43.203203 -114.021343 307 11314ft 321kts
11-Nov-17 23:02 43.262989 -114.095026 321 9350ft 281kts
11-Nov-17 23:03 43.317271 -114.154152 321 8612ft 216kts
11-Nov-17 23:04 43.359918 -114.191803 332 8427ft 166kts
11-Nov-17 23:05 43.400408 -114.220150 332 7169ft 166kts
11-Nov-17 23:06 43.437672 -114.245073 337 6664ft 141kts
11-Nov-17 23:07 43.472931 -114.265735 329 5903ft 137kts
11-Nov-17 23:08 43.503513 -114.295228 324 5329ft 114kts
11-Nov-17 23:09 43.507243 -114.300423 141 5328ft 8kts
11-Nov-17 23:10 43.505161 -114.298550 180 5328ft 7kts
11-Nov-17 23:11 43.505410 -114.299388 325 5328ft 0kts
11-Nov-17 23:12 43.505410 -114.299387 325 5328ft 0kts
11-Nov-17 23:13 43.504097 -114.295798 324 5329ft 106kts
11-Nov-17 23:14 43.507550 -114.299147 327 5328ft 31kts

Navigation Log

Ident Type
Flight plan parsing failed, navigation log unavailable